Main page
METAR-TAF:

METAR-TAF

Airports :

London Stansted Airport

London-Stansted, England

latitude: 51-53N, longitude: 000-14E, elevation: 106 m

Current weather observation

The report was made 43 minutes ago, at 04:50 UTC
Wind 1 kt from the North/Northeast
Temperature 16°C
Humidity 88%
Pressure 1016 hPa
Visibility 10 km or more

METAR: EGSS 230450Z AUTO 03001KT 9999 NCD 16/14 Q1016

Time: 06:33 (05:33 UTC)

Forecast

The report was made 6 hours and 39 minutes ago, at 22:54 UTC
Forecast valid from 23 at 00 UTC to 24 at 06 UTC
Wind 3 kt from variable directions
Visibility 10 km or more
Few clouds at a height of 4000 ft
Becoming
from 23 at 07 UTC to 23 at 10 UTC
Wind 10 kt from the Southwest
Probability 30%
from 24 at 01 UTC to 24 at 06 UTC
Visibility: 6000 m

TAF: EGSS 222254Z 2300/2406 VRB03KT 9999 FEW040 BECMG 2307/2310 23010KT PROB30 2401/2406 6000

Weather observations and forecasts of more than 4000 airports (METAR and TAF reports).

The available stations are represented by yellow and red dots on the map.

Hover mouse over dot to see the name of the station.

Then click to see weather observations and forecasts.

To change the map : click on the green buttons with a black cross to zoom in, on the green button with a dash to zoom out, or on the green arrows for adjacent maps.


METAR-TAF: